aviador You're here:

KICT Decoded Metar

WICHITA in KS, USA
Report Time2017-09-20 11:53:00
UTC Time2017-09-20 12:57:03
Flight Rules vfr VFR
Wind170° at 08 kt
W.Decomp.*RWY 14: 7.4 kt HW 3.1 kt RCW
RWY 19: 7.1 kt HW 3.6 kt LCW
W.Rank170° ranks 2
Current wind is below 170° avg. (11.9)
Visibility9999 m
Phenomena:N/A
Clouds:Scattered 250 Hf
Expected CloudBase > 1,200 ft AGL from Temp-Dew spread
CeilingNone
Temp21°C (ISA +9)
Dew Point18°C (83% RH)
AAT20.9°C
QNH1007 hPa
Density Alt2,825 ft
Elevation1,335 ft
Report Wrong Elevation
Raw Report
KICT 201153Z 17008KT 10SM SCT250 21/18 A2975 RMK AO2 SLP056
T02060178 10261 20206 53019=

Extra information for KICT:More info

Metar Taf Metar & Taf Last 4 Metars F.Rules Stats Wind Profile Meteogram Temp Stats Airport Information Weather charts Add Link Nearby VenuesMetar ALERT Operation Metar Decoded Social comments

AIRNAV info for KICT